createdAt,value
2023-03-13T00:01:28.301Z,63.49
2023-03-13T00:03:30.871Z,63.80
2023-03-13T00:05:36.390Z,64.16
2023-03-13T00:07:38.983Z,63.95
2023-03-13T00:09:42.892Z,64.08
2023-03-13T00:11:47.143Z,64.17
2023-03-13T00:13:49.708Z,64.02
2023-03-13T00:16:00.793Z,64.37
2023-03-13T00:18:03.377Z,64.38
2023-03-13T00:20:07.335Z,64.33
2023-03-13T00:22:09.904Z,64.57
2023-03-13T00:24:13.221Z,64.28
2023-03-13T00:26:19.075Z,64.23
2023-03-13T00:28:21.601Z,64.14
2023-03-13T00:30:24.221Z,64.15
2023-03-13T00:32:26.806Z,64.16
2023-03-13T00:34:29.367Z,64.49
2023-03-13T00:36:34.173Z,64.44
2023-03-13T00:38:37.285Z,64.62
2023-03-13T00:40:39.836Z,64.36
2023-03-13T00:42:43.724Z,64.05
2023-03-13T00:44:46.282Z,63.80
2023-03-13T00:46:48.802Z,64.13
2023-03-13T00:48:51.921Z,63.91
2023-03-13T00:50:54.871Z,64.32
2023-03-13T00:52:57.408Z,64.08
2023-03-13T00:54:59.947Z,64.00
2023-03-13T00:57:02.467Z,63.86
2023-03-13T00:59:06.667Z,64.16
2023-03-13T01:01:10.432Z,63.87
2023-03-13T01:03:13.074Z,63.83
2023-03-13T01:05:15.900Z,64.11
2023-03-13T01:07:18.440Z,63.91
2023-03-13T01:09:20.998Z,63.99
2023-03-13T01:11:25.177Z,63.85
2023-03-13T01:13:28.249Z,63.96
2023-03-13T01:15:32.193Z,64.26
2023-03-13T01:17:34.719Z,64.42
2023-03-13T01:19:37.267Z,64.64
2023-03-13T01:21:40.202Z,64.61
2023-03-13T01:23:43.162Z,64.67
2023-03-13T01:25:45.735Z,64.67
2023-03-13T01:27:48.293Z,64.73
2023-03-13T01:29:50.853Z,64.51
2023-03-13T01:31:54.796Z,64.51
2023-03-13T01:33:59.393Z,64.52
2023-03-13T01:36:03.473Z,64.76
2023-03-13T01:38:06.078Z,64.57
2023-03-13T01:40:09.838Z,64.51
2023-03-13T01:42:12.383Z,64.44
2023-03-13T01:44:23.298Z,64.50
2023-03-13T01:46:27.945Z,64.32
2023-03-13T01:48:38.509Z,64.32
2023-03-13T01:50:41.178Z,64.35
2023-03-13T01:52:43.764Z,64.63
2023-03-13T01:54:49.533Z,64.40
2023-03-13T01:56:56.093Z,64.14
2023-03-13T01:58:59.745Z,64.26
2023-03-13T02:01:02.631Z,63.92
2023-03-13T02:03:10.039Z,63.98
2023-03-13T02:05:16.171Z,64.33
2023-03-13T02:07:22.722Z,64.34
2023-03-13T02:09:29.724Z,64.56
2023-03-13T02:11:41.589Z,64.54
2023-03-13T02:13:44.555Z,64.64
2023-03-13T02:15:48.075Z,64.52
2023-03-13T02:17:51.652Z,64.94
2023-03-13T02:19:54.446Z,65.22
2023-03-13T02:22:07.839Z,64.83
2023-03-13T02:24:18.750Z,64.94
2023-03-13T02:26:22.694Z,65.05
2023-03-13T02:28:28.404Z,65.08
2023-03-13T02:30:33.071Z,65.31
2023-03-13T02:32:36.018Z,65.24
2023-03-13T02:34:42.004Z,65.38
2023-03-13T02:36:46.245Z,65.53
2023-03-13T02:38:54.691Z,64.78
2023-03-13T02:40:58.895Z,64.98
2023-03-13T02:43:09.970Z,65.26
2023-03-13T02:45:15.762Z,64.38
2023-03-13T02:47:21.956Z,65.14
2023-03-13T02:49:26.358Z,65.00
2023-03-13T02:51:36.007Z,65.26
2023-03-13T02:53:38.970Z,65.16
2023-03-13T02:55:43.269Z,65.61
2023-03-13T02:57:45.938Z,65.91
2023-03-13T02:59:49.815Z,65.71
2023-03-13T03:01:52.703Z,65.22
2023-03-13T03:03:55.719Z,64.94
2023-03-13T03:05:58.280Z,64.87
2023-03-13T03:08:00.868Z,65.20
2023-03-13T03:10:03.412Z,65.06
2023-03-13T03:12:06.635Z,65.11
2023-03-13T03:14:10.648Z,64.63
2023-03-13T03:16:18.633Z,64.77
2023-03-13T03:18:21.291Z,64.99
2023-03-13T03:20:23.826Z,64.83
2023-03-13T03:22:26.397Z,64.78
2023-03-13T03:24:29.142Z,64.34
2023-03-13T03:26:31.852Z,64.15
2023-03-13T03:28:34.857Z,64.22
2023-03-13T03:30:37.410Z,64.08
2023-03-13T03:32:44.220Z,63.27
2023-03-13T03:34:46.819Z,63.58
2023-03-13T03:36:49.358Z,63.78
2023-03-13T03:38:52.216Z,63.57
2023-03-13T03:40:54.748Z,63.76
2023-03-13T03:42:57.314Z,63.00
2023-03-13T03:45:00.161Z,63.42
2023-03-13T03:47:02.861Z,62.75
2023-03-13T03:49:06.983Z,63.51
2023-03-13T03:51:09.868Z,62.96
2023-03-13T03:53:12.396Z,64.08
2023-03-13T03:55:14.962Z,63.74
2023-03-13T03:57:17.560Z,64.18
2023-03-13T03:59:20.140Z,64.11
2023-03-13T04:01:22.681Z,64.23
2023-03-13T04:03:26.138Z,64.37
2023-03-13T04:05:30.068Z,64.76
2023-03-13T04:07:33.144Z,65.03
2023-03-13T04:09:35.826Z,64.90
2023-03-13T04:11:38.424Z,64.65
2023-03-13T04:13:40.957Z,65.44
2023-03-13T04:15:43.873Z,65.36
2023-03-13T04:17:46.428Z,65.09
2023-03-13T04:19:48.963Z,65.31
2023-03-13T04:21:52.855Z,65.18
2023-03-13T04:23:55.416Z,65.48
2023-03-13T04:25:58.037Z,65.33
2023-03-13T04:28:00.652Z,65.44
2023-03-13T04:30:03.356Z,65.39
2023-03-13T04:32:06.342Z,65.43
2023-03-13T04:34:08.878Z,65.78
2023-03-13T04:36:11.440Z,66.09
2023-03-13T04:38:15.351Z,66.33
2023-03-13T04:40:18.081Z,66.79
2023-03-13T04:42:20.644Z,66.52
2023-03-13T04:44:23.707Z,66.21
2023-03-13T04:46:26.365Z,66.22
2023-03-13T04:48:28.978Z,66.51
2023-03-13T04:50:31.541Z,66.39
2023-03-13T04:52:34.121Z,65.84
2023-03-13T04:54:38.144Z,66.03
2023-03-13T04:56:44.020Z,66.19
2023-03-13T04:58:47.101Z,65.98
2023-03-13T05:00:49.676Z,65.61
2023-03-13T05:02:53.161Z,65.29
2023-03-13T05:04:55.735Z,65.20
2023-03-13T05:06:58.354Z,65.38
2023-03-13T05:09:01.245Z,65.30
2023-03-13T05:11:07.947Z,65.37
2023-03-13T05:13:10.668Z,65.48
2023-03-13T05:15:13.236Z,65.06
2023-03-13T05:17:15.790Z,65.13
2023-03-13T05:19:18.397Z,64.80
2023-03-13T05:21:20.933Z,65.23
2023-03-13T05:23:23.771Z,64.81
2023-03-13T05:25:26.401Z,65.28
2023-03-13T05:27:30.292Z,64.55
2023-03-13T05:29:32.885Z,64.98
2023-03-13T05:31:35.475Z,65.16
2023-03-13T05:33:38.079Z,65.11
2023-03-13T05:35:40.712Z,64.84
2023-03-13T05:37:43.899Z,64.34
2023-03-13T05:39:46.528Z,64.77
2023-03-13T05:41:49.105Z,64.49
2023-03-13T05:43:52.979Z,64.44
2023-03-13T05:45:55.564Z,64.30
2023-03-13T05:47:58.876Z,64.76
2023-03-13T05:50:01.429Z,64.29
2023-03-13T05:52:04.059Z,64.67
2023-03-13T05:54:06.699Z,64.78
2023-03-13T05:56:09.251Z,64.79
2023-03-13T05:58:11.886Z,65.20
2023-03-13T06:00:17.954Z,65.48
2023-03-13T06:02:20.802Z,65.66
2023-03-13T06:04:23.768Z,65.80
2023-03-13T06:06:26.421Z,65.63
2023-03-13T06:08:29.042Z,65.72
2023-03-13T06:10:31.618Z,65.65
2023-03-13T06:12:34.183Z,66.29
2023-03-13T06:14:37.840Z,65.69
2023-03-13T06:16:41.956Z,66.06
2023-03-13T06:18:44.493Z,66.11
2023-03-13T06:20:47.028Z,66.07
2023-03-13T06:22:49.597Z,66.39
2023-03-13T06:24:52.198Z,66.29
2023-03-13T06:26:54.839Z,66.64
2023-03-13T06:28:57.484Z,66.14
2023-03-13T06:31:02.833Z,66.58
2023-03-13T06:33:06.998Z,66.04
2023-03-13T06:35:11.152Z,66.34
2023-03-13T06:37:13.821Z,66.45
2023-03-13T06:39:16.370Z,65.63
2023-03-13T06:41:19.016Z,66.13
2023-03-13T06:43:22.213Z,66.64
2023-03-13T06:45:24.772Z,66.11
2023-03-13T06:47:27.335Z,66.36
2023-03-13T06:49:31.402Z,66.85
2023-03-13T06:51:34.321Z,66.49
2023-03-13T06:53:36.848Z,66.63
2023-03-13T06:55:39.373Z,67.11
2023-03-13T06:57:42.003Z,66.84
2023-03-13T06:59:44.573Z,66.53
2023-03-13T07:01:47.127Z,66.92
2023-03-13T07:03:50.019Z,67.41
2023-03-13T07:05:58.106Z,67.51
2023-03-13T07:08:01.085Z,67.38
2023-03-13T07:10:04.825Z,67.96
2023-03-13T07:12:08.090Z,67.65
2023-03-13T07:14:16.906Z,68.46
2023-03-13T07:16:20.207Z,68.65
2023-03-13T07:18:23.402Z,68.08
2023-03-13T07:20:26.030Z,68.46
2023-03-13T07:22:29.970Z,67.98
2023-03-13T07:24:32.583Z,68.24
2023-03-13T07:26:35.204Z,68.62
2023-03-13T07:28:38.113Z,68.36
2023-03-13T07:30:40.731Z,68.73
2023-03-13T07:32:43.363Z,69.39
2023-03-13T07:34:45.938Z,69.55
2023-03-13T07:36:48.557Z,69.53
2023-03-13T07:38:53.419Z,69.81
2023-03-13T07:40:57.634Z,68.96
2023-03-13T07:43:00.164Z,68.94
2023-03-13T07:45:02.882Z,68.38
2023-03-13T07:47:05.864Z,68.94
2023-03-13T07:49:08.769Z,69.22
2023-03-13T07:51:13.606Z,69.23
2023-03-13T07:53:21.008Z,69.14
2023-03-13T07:55:24.941Z,69.06
2023-03-13T07:57:27.520Z,69.28
2023-03-13T07:59:30.504Z,69.92
2023-03-13T08:01:33.059Z,70.33
2023-03-13T08:03:35.684Z,69.68
2023-03-13T08:05:38.273Z,69.58
2023-03-13T08:07:40.853Z,70.22
2023-03-13T08:09:43.666Z,70.27
2023-03-13T08:11:48.847Z,69.85
2023-03-13T08:13:51.804Z,69.68
2023-03-13T08:15:54.328Z,69.97
2023-03-13T08:17:57.487Z,69.55
2023-03-13T08:20:00.018Z,69.25
2023-03-13T08:22:03.327Z,69.27
2023-03-13T08:24:08.079Z,69.96
2023-03-13T08:26:13.074Z,69.89
2023-03-13T08:28:16.990Z,69.97
2023-03-13T08:30:20.047Z,69.97
2023-03-13T08:32:23.002Z,69.65
2023-03-13T08:34:25.613Z,69.99
2023-03-13T08:36:30.681Z,70.43
2023-03-13T08:38:33.230Z,70.02
2023-03-13T08:40:35.792Z,69.86
2023-03-13T08:42:40.284Z,70.30
2023-03-13T08:44:44.442Z,69.97
2023-03-13T08:46:49.078Z,69.48
2023-03-13T08:48:52.248Z,69.85
2023-03-13T08:51:02.484Z,69.35
2023-03-13T08:53:05.029Z,69.98
2023-03-13T08:55:08.890Z,69.58
2023-03-13T08:57:11.571Z,69.84
2023-03-13T08:59:15.425Z,69.29
2023-03-13T09:01:19.720Z,69.27
2023-03-13T09:03:22.570Z,69.57
2023-03-13T09:05:25.189Z,69.08
2023-03-13T09:07:27.719Z,68.81
2023-03-13T09:09:30.295Z,69.03
2023-03-13T09:11:33.226Z,68.42
2023-03-13T09:13:38.199Z,68.92
2023-03-13T09:15:40.805Z,68.84
2023-03-13T09:17:44.748Z,69.29
2023-03-13T09:19:59.364Z,68.46
2023-03-13T09:22:02.514Z,69.22
2023-03-13T09:24:05.545Z,68.70
2023-03-13T09:26:08.205Z,68.11
2023-03-13T09:28:10.799Z,68.34
2023-03-13T09:30:14.101Z,68.95
2023-03-13T09:32:16.943Z,68.59
2023-03-13T09:34:23.225Z,68.25
2023-03-13T09:36:26.428Z,67.98
2023-03-13T09:38:28.991Z,67.77
2023-03-13T09:40:32.037Z,67.13
2023-03-13T09:42:45.262Z,66.28
2023-03-13T09:44:51.544Z,66.34
2023-03-13T09:47:02.615Z,65.32
2023-03-13T09:49:11.807Z,65.31
2023-03-13T09:51:20.522Z,65.33
2023-03-13T09:53:34.139Z,64.35
2023-03-13T09:55:39.533Z,63.89
2023-03-13T09:57:50.720Z,64.47
2023-03-13T09:59:58.549Z,62.77
2023-03-13T10:02:05.137Z,61.64
2023-03-13T10:04:15.161Z,62.53
2023-03-13T10:06:20.928Z,62.57
2023-03-13T10:08:25.264Z,63.20
2023-03-13T10:10:36.847Z,64.05
2023-03-13T10:12:44.957Z,62.99
2023-03-13T10:14:54.990Z,60.82
2023-03-13T10:17:03.724Z,60.46
2023-03-13T10:19:13.626Z,60.13
2023-03-13T10:21:20.712Z,61.02
2023-03-13T10:23:28.696Z,60.75
2023-03-13T10:25:34.061Z,59.28
2023-03-13T10:27:45.358Z,59.05
2023-03-13T10:29:47.940Z,58.99
2023-03-13T10:31:57.418Z,58.67
2023-03-13T10:34:07.182Z,58.04
2023-03-13T10:36:12.549Z,57.39
2023-03-13T10:38:19.639Z,57.60
2023-03-13T10:40:24.637Z,57.36
2023-03-13T10:42:29.343Z,56.88
2023-03-13T10:44:34.021Z,56.74
2023-03-13T10:46:41.809Z,57.06
2023-03-13T10:48:44.354Z,57.08
2023-03-13T10:50:48.619Z,57.87
2023-03-13T10:52:52.109Z,58.03
2023-03-13T10:55:00.867Z,57.53
2023-03-13T10:57:22.063Z,58.27
2023-03-13T10:59:26.665Z,58.50
2023-03-13T11:01:32.428Z,57.42
2023-03-13T11:03:35.112Z,57.56
2023-03-13T11:05:43.134Z,58.27
2023-03-13T11:07:46.236Z,58.68
2023-03-13T11:10:00.306Z,58.71
2023-03-13T11:12:06.133Z,58.59
2023-03-13T11:14:10.833Z,58.04
2023-03-13T11:16:20.599Z,57.81
2023-03-13T11:18:31.331Z,56.92
2023-03-13T11:20:37.591Z,57.32
2023-03-13T11:23:06.200Z,56.02
2023-03-13T11:25:21.757Z,55.96
2023-03-13T11:27:31.154Z,56.84
2023-03-13T11:29:44.098Z,56.78
2023-03-13T11:31:49.969Z,56.60
2023-03-13T11:33:59.638Z,55.81
2023-03-13T11:36:07.163Z,56.07
2023-03-13T11:38:19.920Z,56.91
2023-03-13T11:40:31.065Z,56.83
2023-03-13T11:43:21.653Z,56.43
2023-03-13T11:45:49.337Z,56.09
2023-03-13T11:48:00.008Z,56.97
2023-03-13T11:50:16.305Z,56.38
2023-03-13T11:52:31.348Z,56.47
2023-03-13T11:54:51.242Z,55.54
2023-03-13T11:56:58.246Z,56.07
2023-03-13T11:59:17.457Z,56.27
2023-03-13T12:01:21.717Z,55.64
2023-03-13T12:03:34.412Z,56.01
2023-03-13T12:05:45.529Z,56.62
2023-03-13T12:07:54.417Z,55.63
2023-03-13T12:10:00.637Z,55.67
2023-03-13T12:12:16.184Z,55.43
2023-03-13T12:14:23.335Z,55.87
2023-03-13T12:16:40.766Z,54.71
2023-03-13T12:18:46.011Z,54.29
2023-03-13T12:20:55.920Z,53.87
2023-03-13T12:23:17.009Z,52.72
2023-03-13T12:25:24.688Z,53.04
2023-03-13T12:27:32.819Z,51.82
2023-03-13T12:29:45.784Z,50.49
2023-03-13T12:31:54.203Z,50.06
2023-03-13T12:34:04.306Z,49.60
2023-03-13T12:36:14.496Z,49.98
2023-03-13T12:38:23.952Z,49.13
2023-03-13T12:40:32.033Z,48.68
2023-03-13T12:42:50.396Z,48.32
2023-03-13T12:44:53.370Z,47.90
2023-03-13T12:47:08.288Z,47.83
2023-03-13T12:49:47.209Z,47.88
2023-03-13T12:52:08.337Z,47.09
2023-03-13T12:54:33.112Z,46.61
2023-03-13T12:56:48.300Z,46.34
2023-03-13T12:58:55.590Z,45.82
2023-03-13T13:01:03.795Z,45.68
2023-03-13T13:03:17.253Z,45.03
2023-03-13T13:05:22.844Z,44.20
2023-03-13T13:07:27.630Z,43.09
2023-03-13T13:09:32.319Z,42.61
2023-03-13T13:11:48.332Z,43.05
2023-03-13T13:13:52.242Z,41.99
2023-03-13T13:16:02.193Z,41.15
2023-03-13T13:18:24.041Z,40.19
2023-03-13T13:20:42.143Z,39.22
2023-03-13T13:22:52.472Z,38.32
2023-03-13T13:24:56.534Z,38.27
2023-03-13T13:26:59.153Z,37.68
2023-03-13T13:29:41.485Z,37.97
2023-03-13T13:32:00.176Z,37.78
2023-03-13T13:34:02.792Z,37.72
2023-03-13T13:36:28.404Z,37.66
2023-03-13T13:38:36.785Z,38.34
2023-03-13T13:40:42.414Z,38.40
2023-03-13T13:42:49.325Z,39.05
2023-03-13T13:44:58.807Z,39.30
2023-03-13T13:47:03.032Z,38.86
2023-03-13T13:49:15.662Z,39.44
2023-03-13T13:51:28.667Z,39.89
2023-03-13T13:53:34.190Z,39.66
2023-03-13T13:55:44.928Z,40.45
2023-03-13T13:57:49.340Z,40.48
2023-03-13T13:59:54.281Z,40.74
2023-03-13T14:02:18.500Z,40.11
2023-03-13T14:04:28.927Z,39.58
2023-03-13T14:06:36.945Z,39.39
2023-03-13T14:08:41.469Z,39.72
2023-03-13T14:10:46.822Z,40.34
2023-03-13T14:12:53.997Z,39.94
2023-03-13T14:15:24.904Z,39.55
2023-03-13T14:17:28.793Z,39.87
2023-03-13T14:19:38.933Z,40.13
2023-03-13T14:21:41.799Z,40.15
2023-03-13T14:23:46.396Z,40.43
2023-03-13T14:25:50.452Z,40.44
2023-03-13T14:27:54.635Z,38.93
2023-03-13T14:30:03.788Z,38.39
2023-03-13T14:32:07.157Z,37.80
2023-03-13T14:34:14.092Z,37.45
2023-03-13T14:36:16.765Z,37.15
2023-03-13T14:38:21.107Z,37.08
2023-03-13T14:40:28.760Z,37.25
2023-03-13T14:42:39.989Z,36.03
2023-03-13T14:44:46.437Z,36.45
2023-03-13T14:46:49.091Z,36.42
2023-03-13T14:48:55.580Z,36.30
2023-03-13T14:51:14.775Z,35.92
2023-03-13T14:53:19.996Z,36.22
2023-03-13T14:55:35.142Z,36.50
2023-03-13T14:57:37.770Z,36.79
2023-03-13T14:59:40.391Z,36.93
2023-03-13T15:01:43.006Z,36.99
2023-03-13T15:03:46.860Z,37.69
2023-03-13T15:05:51.615Z,38.47
2023-03-13T15:07:56.153Z,38.02
2023-03-13T15:10:00.369Z,38.64
2023-03-13T15:12:02.914Z,38.76
2023-03-13T15:14:25.608Z,38.92
2023-03-13T15:16:29.508Z,39.19
2023-03-13T15:18:35.637Z,39.01
2023-03-13T15:20:38.183Z,38.94
2023-03-13T15:22:42.057Z,39.36
2023-03-13T15:24:59.582Z,39.03
2023-03-13T15:27:16.092Z,39.47
2023-03-13T15:29:20.135Z,39.07
2023-03-13T15:31:28.639Z,39.27
2023-03-13T15:33:31.688Z,41.54
2023-03-13T15:35:35.432Z,42.38
2023-03-13T15:37:38.027Z,43.25
2023-03-13T15:39:40.823Z,43.53
2023-03-13T15:41:44.731Z,44.01
2023-03-13T15:43:47.511Z,44.16
2023-03-13T15:45:52.329Z,44.14
2023-03-13T15:47:54.945Z,44.47
2023-03-13T15:49:57.520Z,44.78
2023-03-13T15:52:00.093Z,44.57
2023-03-13T15:54:03.167Z,44.30
2023-03-13T15:56:14.076Z,44.30
2023-03-13T15:58:18.795Z,44.18
2023-03-13T16:00:23.747Z,44.31
2023-03-13T16:02:26.288Z,44.25
2023-03-13T16:04:28.866Z,43.79
2023-03-13T16:06:32.330Z,44.24
2023-03-13T16:08:36.153Z,44.95
2023-03-13T16:10:39.514Z,44.79
2023-03-13T16:12:42.133Z,44.99
2023-03-13T16:14:46.941Z,45.02
2023-03-13T16:16:52.611Z,45.24
2023-03-13T16:18:59.082Z,45.18
2023-03-13T16:21:01.608Z,45.21
2023-03-13T16:23:04.233Z,45.15
2023-03-13T16:25:08.681Z,45.32
2023-03-13T16:27:14.983Z,45.88
2023-03-13T16:29:17.965Z,45.90
2023-03-13T16:31:23.740Z,46.40
2023-03-13T16:33:26.300Z,46.42
2023-03-13T16:35:29.791Z,46.29
2023-03-13T16:37:32.452Z,46.31
2023-03-13T16:39:34.982Z,46.57
2023-03-13T16:41:39.010Z,46.61
2023-03-13T16:43:41.594Z,46.86
2023-03-13T16:45:44.447Z,46.90
2023-03-13T16:47:49.677Z,47.08
2023-03-13T16:49:52.202Z,47.23
2023-03-13T16:51:54.907Z,47.77
2023-03-13T16:54:00.287Z,48.33
2023-03-13T16:56:02.861Z,48.50
2023-03-13T16:58:06.016Z,48.93
2023-03-13T17:00:14.830Z,49.01
2023-03-13T17:02:18.814Z,49.29
2023-03-13T17:04:22.762Z,49.30
2023-03-13T17:06:28.268Z,49.44
2023-03-13T17:08:30.813Z,49.31
2023-03-13T17:10:34.885Z,48.96
2023-03-13T17:12:37.409Z,49.41
2023-03-13T17:14:39.974Z,49.54
2023-03-13T17:16:44.628Z,49.34
2023-03-13T17:18:49.938Z,49.52
2023-03-13T17:20:54.702Z,49.61
2023-03-13T17:22:57.996Z,49.55
2023-03-13T17:25:00.539Z,49.80
2023-03-13T17:27:03.351Z,50.25
2023-03-13T17:29:07.303Z,50.60
2023-03-13T17:31:11.185Z,50.60
2023-03-13T17:33:16.672Z,50.61
2023-03-13T17:35:20.843Z,50.53
2023-03-13T17:37:26.626Z,50.67
2023-03-13T17:39:29.144Z,50.28
2023-03-13T17:41:33.426Z,50.60
2023-03-13T17:43:35.980Z,50.93
2023-03-13T17:45:38.530Z,50.83
2023-03-13T17:47:42.013Z,51.05
2023-03-13T17:49:45.391Z,51.28
2023-03-13T17:51:49.847Z,51.21
2023-03-13T17:53:55.084Z,51.31
2023-03-13T17:55:57.848Z,51.63
2023-03-13T17:58:00.397Z,51.08
2023-03-13T18:00:03.864Z,51.06
2023-03-13T18:02:06.517Z,50.87
2023-03-13T18:04:09.383Z,51.02
2023-03-13T18:06:19.438Z,50.89
2023-03-13T18:08:22.003Z,51.07
2023-03-13T18:10:27.858Z,51.18
2023-03-13T18:12:31.126Z,50.94
2023-03-13T18:14:36.024Z,50.96
2023-03-13T18:16:43.141Z,51.05
2023-03-13T18:18:46.130Z,51.07
2023-03-13T18:20:48.657Z,50.87
2023-03-13T18:22:51.837Z,50.71
2023-03-13T18:24:54.382Z,50.33
2023-03-13T18:26:58.268Z,50.89
2023-03-13T18:29:01.736Z,50.86
2023-03-13T18:31:04.536Z,50.88
2023-03-13T18:33:07.255Z,50.03
2023-03-13T18:35:10.255Z,49.58
2023-03-13T18:37:21.580Z,50.26
2023-03-13T18:39:24.183Z,50.10
2023-03-13T18:41:26.719Z,49.74
2023-03-13T18:43:30.632Z,49.75
2023-03-13T18:45:33.477Z,50.06
2023-03-13T18:47:36.828Z,49.84
2023-03-13T18:49:39.393Z,49.28
2023-03-13T18:51:41.969Z,49.81
2023-03-13T18:53:44.990Z,49.30
2023-03-13T18:55:47.564Z,51.38
2023-03-13T18:57:50.301Z,54.44
2023-03-13T18:59:54.188Z,56.68
2023-03-13T19:01:56.773Z,57.46
2023-03-13T19:04:00.784Z,58.81
2023-03-13T19:06:03.646Z,59.86
2023-03-13T19:08:06.248Z,60.08
2023-03-13T19:10:20.315Z,60.56
2023-03-13T19:12:25.981Z,60.65
2023-03-13T19:14:28.519Z,61.00
2023-03-13T19:16:37.895Z,61.33
2023-03-13T19:18:40.644Z,61.38
2023-03-13T19:20:43.331Z,61.15
2023-03-13T19:22:45.884Z,61.46
2023-03-13T19:24:48.545Z,61.69
2023-03-13T19:26:53.800Z,61.96
2023-03-13T19:28:56.826Z,61.91
2023-03-13T19:30:59.409Z,61.97
2023-03-13T19:33:03.376Z,62.14
2023-03-13T19:35:06.849Z,62.27
2023-03-13T19:37:10.948Z,62.48
2023-03-13T19:39:15.749Z,62.21
2023-03-13T19:41:18.366Z,61.78
2023-03-13T19:43:20.930Z,62.08
2023-03-13T19:45:23.486Z,62.54
2023-03-13T19:47:26.038Z,62.86
2023-03-13T19:49:30.023Z,62.98
2023-03-13T19:51:32.778Z,63.15
2023-03-13T19:53:35.347Z,63.37
2023-03-13T19:55:37.918Z,63.79
2023-03-13T19:57:40.489Z,64.21
2023-03-13T19:59:43.030Z,64.63
2023-03-13T20:01:46.798Z,64.07
2023-03-13T20:03:49.467Z,64.64
2023-03-13T20:05:53.367Z,65.88
2023-03-13T20:07:55.970Z,69.23
2023-03-13T20:09:58.586Z,72.06
2023-03-13T20:12:01.142Z,71.89
2023-03-13T20:14:04.650Z,72.47
2023-03-13T20:16:08.185Z,72.18
2023-03-13T20:18:11.241Z,73.23
2023-03-13T20:20:14.382Z,72.25
2023-03-13T20:22:18.303Z,72.60
2023-03-13T20:24:20.887Z,73.60
2023-03-13T20:26:23.429Z,74.04
2023-03-13T20:28:26.090Z,75.05
2023-03-13T20:30:28.629Z,74.82
2023-03-13T20:32:31.233Z,75.86
2023-03-13T20:34:34.796Z,75.82
2023-03-13T20:36:37.327Z,76.91
2023-03-13T20:38:42.311Z,75.01
2023-03-13T20:40:52.440Z,73.02
2023-03-13T20:42:55.486Z,76.70
2023-03-13T20:44:58.493Z,78.75
2023-03-13T20:47:01.052Z,80.13
2023-03-13T20:49:03.630Z,81.37
2023-03-13T20:51:07.102Z,83.84
2023-03-13T20:53:10.068Z,81.82
2023-03-13T20:55:14.033Z,84.04
2023-03-13T20:57:19.309Z,81.07
2023-03-13T20:59:21.877Z,78.04
2023-03-13T21:01:26.932Z,75.85
2023-03-13T21:03:31.786Z,74.32
2023-03-13T21:05:34.420Z,74.28
2023-03-13T21:07:36.990Z,73.70
2023-03-13T21:09:39.548Z,72.79
2023-03-13T21:11:43.513Z,74.58
2023-03-13T21:13:46.459Z,75.88
2023-03-13T21:15:49.032Z,76.48
2023-03-13T21:17:52.156Z,76.30
2023-03-13T21:19:55.189Z,75.73
2023-03-13T21:21:57.750Z,75.30
2023-03-13T21:24:00.283Z,76.08
2023-03-13T21:26:02.872Z,76.50
2023-03-13T21:28:06.873Z,77.67
2023-03-13T21:30:11.993Z,78.23
2023-03-13T21:32:15.688Z,77.94
2023-03-13T21:34:18.298Z,77.95
2023-03-13T21:36:22.455Z,78.50
2023-03-13T21:38:25.055Z,77.35
2023-03-13T21:40:28.600Z,74.84
2023-03-13T21:42:31.141Z,75.01
2023-03-13T21:44:35.812Z,75.72
2023-03-13T21:46:38.401Z,75.11
2023-03-13T21:48:42.266Z,75.31
2023-03-13T21:50:45.086Z,76.31
2023-03-13T21:52:47.676Z,76.88
2023-03-13T21:54:50.843Z,76.88
2023-03-13T21:56:53.712Z,77.02
2023-03-13T21:58:56.263Z,76.96
2023-03-13T22:01:00.803Z,77.40
2023-03-13T22:03:03.662Z,77.06
2023-03-13T22:05:06.865Z,77.40
2023-03-13T22:07:09.538Z,76.56
2023-03-13T22:09:12.095Z,76.55
2023-03-13T22:11:15.708Z,76.90
2023-03-13T22:13:18.334Z,77.03
2023-03-13T22:15:20.876Z,77.09
2023-03-13T22:17:24.810Z,77.38
2023-03-13T22:19:27.353Z,77.19
2023-03-13T22:21:29.885Z,77.81
2023-03-13T22:23:32.554Z,77.79
2023-03-13T22:25:35.170Z,77.61
2023-03-13T22:27:37.735Z,76.01
2023-03-13T22:29:40.374Z,75.75
2023-03-13T22:31:42.919Z,75.96
2023-03-13T22:33:46.846Z,76.20
2023-03-13T22:35:52.097Z,76.12
2023-03-13T22:37:54.832Z,75.57
2023-03-13T22:39:57.356Z,75.13
2023-03-13T22:41:59.915Z,75.47
2023-03-13T22:44:02.494Z,75.81
2023-03-13T22:46:06.992Z,74.53
2023-03-13T22:48:09.560Z,74.66
2023-03-13T22:50:14.023Z,75.88
2023-03-13T22:52:16.591Z,74.02
2023-03-13T22:54:19.134Z,74.77
2023-03-13T22:56:21.953Z,73.50
2023-03-13T22:58:24.515Z,73.17
2023-03-13T23:00:27.253Z,72.44
2023-03-13T23:02:30.338Z,72.53
2023-03-13T23:04:32.868Z,72.48
2023-03-13T23:06:36.755Z,73.04
2023-03-13T23:08:39.358Z,73.07
2023-03-13T23:10:43.117Z,72.79
2023-03-13T23:12:46.104Z,73.74
2023-03-13T23:14:48.830Z,73.99
2023-03-13T23:16:51.470Z,73.97
2023-03-13T23:18:54.051Z,73.95
2023-03-13T23:20:56.590Z,73.61
2023-03-13T23:23:00.580Z,74.14
2023-03-13T23:25:03.128Z,74.70
2023-03-13T23:27:06.469Z,74.66
2023-03-13T23:29:09.094Z,75.14
2023-03-13T23:31:13.249Z,75.57
2023-03-13T23:33:18.811Z,75.77
2023-03-13T23:35:21.956Z,76.09
2023-03-13T23:37:24.481Z,76.24
2023-03-13T23:39:28.442Z,76.05
2023-03-13T23:41:31.375Z,74.60
2023-03-13T23:43:34.204Z,74.91
2023-03-13T23:45:37.067Z,73.79
2023-03-13T23:47:39.642Z,74.41
2023-03-13T23:49:42.390Z,74.38
2023-03-13T23:51:44.929Z,72.99
2023-03-13T23:53:47.462Z,72.20
2023-03-13T23:55:59.147Z,73.44
2023-03-13T23:58:01.751Z,72.49
